CheckWX is a tool to help pilots better visualize weather data.  It is not intended as a substitute for an official pre-flight weather briefing.

12:34:56 UTC

EGUL TAF
RAF Lakenheath Airport
Lakenheath, United Kingdom
TAF EGUL 271205Z 2712/2818 06009KT 9999 SKC QNH3045INS BECMG 2721/2722 06009KT 9999 OVC014 QNH3040INS BECMG 2805/2806 07009KT 9999 BKN014 QNH3036INS TEMPO 2805/2807 BKN015 BECMG 2807/2808 09009KT 9999 SKC QNH3035INS TX19/2715Z TN12/2802Z

Jun-27@
12:00 UTC

Jun-27 @ 12:00 UTC

Jun-27@
21:00 UTC

Jun-27 @ 21:00 UTC

TAF EGUL 271205Z 2712/2818 06009KT 9999 SKC QNH3045INS
Wind
  • 060° at 9 KTS
Cloud Levels
  • Clear skies

Jun-27@
21:00 UTC

Jun-27 @ 21:00 UTC

Jun-28@
05:00 UTC

Jun-28 @ 05:00 UTC

BECMG 2721/2722 06009KT 9999 OVC014 QNH3040INS

Becoming

Becoming Conditions expected by Thu, Jun 27, 2019 @ 22:00 UTC

Wind
  • 060° at 9 KTS
Cloud Levels
  • Overcast at 1,400' AGL

Jun-28@
05:00 UTC

Jun-28 @ 05:00 UTC

Jun-28@
07:00 UTC

Jun-28 @ 07:00 UTC

BECMG 2805/2806 07009KT 9999 BKN014 QNH3036INS

Becoming

Becoming Conditions expected by Fri, Jun 28, 2019 @ 06:00 UTC

Wind
  • 070° at 9 KTS
Cloud Levels
  • Broken at 1,400' AGL

Jun-28@
05:00 UTC

Jun-28 @ 05:00 UTC

Jun-28@
07:00 UTC

Jun-28 @ 07:00 UTC

TEMPO 2805/2807 BKN015

Temporary

Temporary Changes expected for less than half the time period

Cloud Levels
  • Broken at 1,500' AGL

Jun-28@
07:00 UTC

Jun-28 @ 07:00 UTC

Jun-28@
18:00 UTC

Jun-28 @ 18:00 UTC

BECMG 2807/2808 09009KT 9999 SKC QNH3035INS TX19/2715Z TN12/2802Z

Becoming

Becoming Conditions expected by Fri, Jun 28, 2019 @ 08:00 UTC

Wind
  • 090° at 9 KTS
Cloud Levels
  • Clear skies